createdAt,value
2024-01-07T00:01:29.506Z,1.60
2024-01-07T00:03:56.425Z,1.70
2024-01-07T00:06:23.664Z,1.50
2024-01-07T00:08:50.447Z,1.50
2024-01-07T00:11:17.248Z,1.50
2024-01-07T00:13:44.011Z,1.40
2024-01-07T00:16:11.921Z,1.40
2024-01-07T00:18:40.036Z,1.40
2024-01-07T00:21:06.934Z,1.40
2024-01-07T00:23:33.710Z,1.30
2024-01-07T00:26:00.466Z,1.30
2024-01-07T00:28:27.257Z,1.30
2024-01-07T00:30:54.105Z,1.40
2024-01-07T00:33:20.996Z,1.30
2024-01-07T00:35:47.820Z,1.40
2024-01-07T00:38:14.600Z,1.40
2024-01-07T00:40:41.370Z,1.40
2024-01-07T00:43:08.169Z,1.40
2024-01-07T00:45:35.174Z,1.40
2024-01-07T00:48:02.086Z,1.30
2024-01-07T00:50:28.941Z,1.40
2024-01-07T00:52:55.725Z,1.40
2024-01-07T00:55:24.671Z,1.50
2024-01-07T00:57:51.824Z,1.40
2024-01-07T01:00:19.407Z,1.30
2024-01-07T01:02:46.784Z,1.40
2024-01-07T01:05:13.793Z,1.40
2024-01-07T01:07:40.590Z,1.30
2024-01-07T01:10:08.206Z,1.40
2024-01-07T01:12:35.139Z,1.40
2024-01-07T01:15:02.181Z,1.40
2024-01-07T01:17:29.014Z,1.40
2024-01-07T01:19:55.846Z,1.40
2024-01-07T01:22:22.628Z,1.50
2024-01-07T01:24:50.132Z,1.50
2024-01-07T01:27:16.961Z,1.50
2024-01-07T01:29:43.710Z,1.30
2024-01-07T01:32:11.052Z,1.30
2024-01-07T01:34:38.153Z,1.40
2024-01-07T01:37:05.084Z,1.30
2024-01-07T01:39:31.939Z,1.30
2024-01-07T01:41:59.255Z,1.30
2024-01-07T01:44:28.330Z,1.30
2024-01-07T01:46:56.758Z,1.20
2024-01-07T01:49:25.047Z,1.20
2024-01-07T01:51:54.107Z,1.30
2024-01-07T01:54:22.113Z,1.30
2024-01-07T01:56:49.844Z,1.20
2024-01-07T01:59:17.341Z,1.20
2024-01-07T02:01:45.117Z,1.20
2024-01-07T02:04:12.409Z,1.30
2024-01-07T02:06:39.564Z,1.30
2024-01-07T02:09:06.425Z,1.30
2024-01-07T02:11:33.181Z,1.20
2024-01-07T02:13:59.938Z,1.30
2024-01-07T02:16:26.839Z,1.30
2024-01-07T02:18:53.933Z,1.20
2024-01-07T02:21:20.739Z,1.10
2024-01-07T02:23:47.514Z,1.10
2024-01-07T02:26:14.280Z,1.10
2024-01-07T02:28:41.017Z,1.20
2024-01-07T02:31:07.918Z,1.20
2024-01-07T02:33:34.944Z,1.20
2024-01-07T02:36:01.887Z,1.20
2024-01-07T02:38:28.656Z,1.10
2024-01-07T02:40:55.397Z,1.10
2024-01-07T02:43:22.189Z,1.20
2024-01-07T02:45:49.084Z,1.10
2024-01-07T02:48:15.998Z,1.10
2024-01-07T02:50:42.762Z,1.10
2024-01-07T02:53:10.927Z,1.10
2024-01-07T02:55:37.835Z,1.10
2024-01-07T02:58:04.862Z,1.10
2024-01-07T03:00:31.843Z,1.10
2024-01-07T03:02:58.772Z,1.10
2024-01-07T03:05:25.947Z,1.00
2024-01-07T03:07:52.724Z,1.10
2024-01-07T03:10:19.601Z,1.10
2024-01-07T03:12:46.393Z,1.10
2024-01-07T03:15:13.280Z,1.20
2024-01-07T03:17:40.263Z,1.10
2024-01-07T03:20:07.772Z,1.10
2024-01-07T03:22:34.612Z,1.00
2024-01-07T03:25:01.496Z,1.00
2024-01-07T03:27:28.340Z,0.90
2024-01-07T03:29:55.149Z,1.00
2024-01-07T03:32:21.885Z,0.90
2024-01-07T03:34:48.793Z,0.90
2024-01-07T03:37:15.751Z,1.00
2024-01-07T03:39:42.990Z,0.80
2024-01-07T03:42:12.785Z,0.90
2024-01-07T03:44:40.084Z,0.70
2024-01-07T03:47:09.710Z,0.70
2024-01-07T03:49:39.075Z,0.80
2024-01-07T03:52:09.180Z,0.70
2024-01-07T03:54:36.048Z,0.60
2024-01-07T03:57:02.831Z,0.50
2024-01-07T03:59:29.642Z,0.50
2024-01-07T04:01:57.622Z,0.40
2024-01-07T04:04:24.738Z,0.40
2024-01-07T04:06:51.574Z,0.40
2024-01-07T04:09:18.408Z,0.40
2024-01-07T04:11:45.200Z,0.50
2024-01-07T04:14:14.908Z,0.50
2024-01-07T04:16:41.796Z,0.40
2024-01-07T04:19:08.618Z,0.50
2024-01-07T04:21:36.841Z,0.50
2024-01-07T04:24:03.907Z,0.50
2024-01-07T04:26:30.690Z,0.50
2024-01-07T04:28:57.443Z,0.50
2024-01-07T04:31:24.368Z,0.40
2024-01-07T04:33:51.408Z,0.40
2024-01-07T04:36:18.474Z,0.50
2024-01-07T04:38:45.274Z,0.50
2024-01-07T04:41:12.091Z,0.50
2024-01-07T04:43:38.892Z,0.50
2024-01-07T04:46:05.991Z,0.50
2024-01-07T04:48:33.055Z,0.50
2024-01-07T04:50:59.922Z,0.60
2024-01-07T04:53:26.693Z,0.50
2024-01-07T04:55:53.453Z,0.50
2024-01-07T04:58:20.295Z,0.40
2024-01-07T05:00:47.161Z,0.40
2024-01-07T05:03:14.043Z,0.30
2024-01-07T05:05:40.831Z,0.40
2024-01-07T05:08:07.978Z,0.40
2024-01-07T05:10:34.838Z,0.40
2024-01-07T05:13:06.189Z,0.30
2024-01-07T05:15:33.389Z,0.10
2024-01-07T05:18:00.595Z,0.00
2024-01-07T05:20:27.547Z,0.00
2024-01-07T05:22:54.552Z,-0.10
2024-01-07T05:25:21.416Z,0.00
2024-01-07T05:27:48.361Z,0.00
2024-01-07T05:30:15.400Z,0.00
2024-01-07T05:32:42.334Z,-0.10
2024-01-07T05:35:09.824Z,-0.10
2024-01-07T05:37:36.583Z,-0.20
2024-01-07T05:40:03.565Z,-0.20
2024-01-07T05:42:30.408Z,-0.20
2024-01-07T05:44:57.282Z,-0.30
2024-01-07T05:47:24.051Z,-0.30
2024-01-07T05:49:53.254Z,-0.30
2024-01-07T05:52:20.325Z,-0.30
2024-01-07T05:54:47.076Z,-0.20
2024-01-07T05:57:14.038Z,-0.30
2024-01-07T05:59:40.853Z,-0.40
2024-01-07T06:02:07.879Z,-0.40
2024-01-07T06:04:34.841Z,-0.50
2024-01-07T06:07:01.784Z,-0.50
2024-01-07T06:09:28.892Z,-0.50
2024-01-07T06:11:56.479Z,-0.50
2024-01-07T06:14:23.870Z,-0.60
2024-01-07T06:16:50.662Z,-0.60
2024-01-07T06:19:20.455Z,-0.70
2024-01-07T06:21:47.313Z,-0.70
2024-01-07T06:24:14.222Z,-0.80
2024-01-07T06:26:41.812Z,-0.90
2024-01-07T06:29:10.689Z,-0.80
2024-01-07T06:31:37.702Z,-0.70
2024-01-07T06:34:04.766Z,-0.70
2024-01-07T06:36:31.676Z,-0.80
2024-01-07T06:38:58.459Z,-0.90
2024-01-07T06:41:25.352Z,-0.90
2024-01-07T06:43:55.062Z,-0.80
2024-01-07T06:46:22.105Z,-0.70
2024-01-07T06:48:51.675Z,-0.80
2024-01-07T06:51:19.055Z,-0.90
2024-01-07T06:53:45.841Z,-0.80
2024-01-07T06:56:12.678Z,-0.70
2024-01-07T06:58:39.457Z,-0.80
2024-01-07T07:01:08.756Z,-0.90
2024-01-07T07:03:35.690Z,-0.80
2024-01-07T07:06:02.494Z,-0.80
2024-01-07T07:08:29.525Z,-0.80
2024-01-07T07:10:56.318Z,-0.80
2024-01-07T07:13:23.117Z,-0.80
2024-01-07T07:15:49.916Z,-0.80
2024-01-07T07:18:16.783Z,-0.80
2024-01-07T07:20:43.715Z,-1.00
2024-01-07T07:23:10.553Z,-1.00
2024-01-07T07:25:37.311Z,-1.00
2024-01-07T07:28:04.594Z,-1.00
2024-01-07T07:30:31.609Z,-1.10
2024-01-07T07:32:58.561Z,-1.10
2024-01-07T07:35:25.464Z,-1.20
2024-01-07T07:37:52.345Z,-1.30
2024-01-07T07:40:19.978Z,-1.40
2024-01-07T07:42:46.844Z,-1.20
2024-01-07T07:45:13.776Z,-1.20
2024-01-07T07:47:45.972Z,-1.10
2024-01-07T07:50:13.224Z,-1.20
2024-01-07T07:52:40.153Z,-1.40
2024-01-07T07:55:08.240Z,-1.20
2024-01-07T07:57:35.170Z,-1.40
2024-01-07T08:00:04.803Z,-1.40
2024-01-07T08:02:32.419Z,-1.50
2024-01-07T08:04:59.200Z,-1.40
2024-01-07T08:07:26.338Z,-1.50
2024-01-07T08:09:54.390Z,-1.30
2024-01-07T08:12:21.188Z,-1.10
2024-01-07T08:14:47.953Z,-1.20
2024-01-07T08:17:14.945Z,-1.10
2024-01-07T08:19:42.042Z,-1.00
2024-01-07T08:22:10.494Z,-0.90
2024-01-07T08:24:37.384Z,-0.80
2024-01-07T08:27:05.081Z,-0.70
2024-01-07T08:29:31.882Z,-0.70
2024-01-07T08:31:59.567Z,-0.80
2024-01-07T08:34:27.309Z,-0.70
2024-01-07T08:36:57.264Z,-0.70
2024-01-07T08:39:24.104Z,-0.70
2024-01-07T08:41:52.292Z,-0.80
2024-01-07T08:44:19.214Z,-0.60
2024-01-07T08:46:46.800Z,-0.60
2024-01-07T08:49:14.882Z,-0.50
2024-01-07T08:51:41.859Z,-0.50
2024-01-07T08:54:08.607Z,-0.60
2024-01-07T08:56:35.572Z,-0.60
2024-01-07T08:59:02.360Z,-0.60
2024-01-07T09:01:29.248Z,-0.60
2024-01-07T09:03:56.208Z,-0.70
2024-01-07T09:06:23.055Z,-0.70
2024-01-07T09:08:49.857Z,-0.80
2024-01-07T09:11:20.750Z,-0.80
2024-01-07T09:13:49.914Z,-0.90
2024-01-07T09:16:17.197Z,-0.80
2024-01-07T09:18:45.457Z,-0.90
2024-01-07T09:21:13.129Z,-0.90
2024-01-07T09:23:40.519Z,-0.70
2024-01-07T09:26:07.400Z,-0.70
2024-01-07T09:28:34.473Z,-0.80
2024-01-07T09:31:01.401Z,-0.80
2024-01-07T09:33:28.743Z,-0.80
2024-01-07T09:36:00.010Z,-0.80
2024-01-07T09:38:32.609Z,-0.70
2024-01-07T09:40:59.528Z,-0.80
2024-01-07T09:43:29.429Z,-0.90
2024-01-07T09:45:58.575Z,-0.80
2024-01-07T09:48:26.043Z,-0.80
2024-01-07T09:50:53.797Z,-0.80
2024-01-07T09:53:21.728Z,-0.70
2024-01-07T09:56:16.377Z,-0.60
2024-01-07T09:58:44.072Z,-0.60
2024-01-07T10:01:11.943Z,-0.80
2024-01-07T10:03:39.239Z,-0.70
2024-01-07T10:06:06.463Z,-0.80
2024-01-07T10:08:33.873Z,-0.80
2024-01-07T10:11:02.753Z,-0.70
2024-01-07T10:13:29.530Z,-0.70
2024-01-07T10:15:56.341Z,-0.80
2024-01-07T10:18:23.738Z,-0.70
2024-01-07T10:20:50.579Z,-0.80
2024-01-07T10:23:20.772Z,-0.90
2024-01-07T10:25:48.522Z,-0.60
2024-01-07T10:28:15.672Z,-0.40
2024-01-07T10:30:52.286Z,-0.40
2024-01-07T10:33:24.212Z,0.20
2024-01-07T10:36:02.084Z,0.70
2024-01-07T10:38:29.023Z,1.30
2024-01-07T10:41:00.179Z,1.60
2024-01-07T10:43:30.427Z,1.40
2024-01-07T10:46:01.493Z,1.00
2024-01-07T10:48:35.336Z,0.70
2024-01-07T10:51:02.366Z,0.40
2024-01-07T10:53:34.659Z,0.30
2024-01-07T10:56:04.990Z,0.20
2024-01-07T10:58:36.544Z,0.10
2024-01-07T11:01:05.885Z,0.10
2024-01-07T11:03:46.325Z,0.00
2024-01-07T11:06:28.957Z,-0.10
2024-01-07T11:09:04.621Z,0.00
2024-01-07T11:11:44.346Z,-0.20
2024-01-07T11:14:41.030Z,-0.10
2024-01-07T11:17:08.364Z,0.00
2024-01-07T11:19:39.107Z,0.20
2024-01-07T11:22:30.830Z,0.00
2024-01-07T11:24:59.041Z,0.00
2024-01-07T11:27:29.512Z,-0.10
2024-01-07T11:30:07.787Z,0.00
2024-01-07T11:32:35.819Z,0.00
2024-01-07T11:35:04.297Z,-0.10
2024-01-07T11:37:31.579Z,-0.10
2024-01-07T11:39:59.342Z,-0.10
2024-01-07T11:42:26.570Z,-0.20
2024-01-07T11:44:57.091Z,-0.20
2024-01-07T11:47:25.119Z,-0.30
2024-01-07T11:49:52.365Z,-0.20
2024-01-07T11:52:20.216Z,-0.10
2024-01-07T11:54:48.510Z,-0.20
2024-01-07T11:57:15.454Z,-0.30
2024-01-07T11:59:44.432Z,-0.30
2024-01-07T12:02:12.387Z,-0.40
2024-01-07T12:04:39.297Z,-0.40
2024-01-07T12:07:06.406Z,-0.40
2024-01-07T12:09:33.410Z,-0.30
2024-01-07T12:12:01.904Z,-0.40
2024-01-07T12:14:29.769Z,-0.40
2024-01-07T12:16:56.825Z,-0.60
2024-01-07T12:19:25.178Z,-0.60
2024-01-07T12:22:06.977Z,-0.60
2024-01-07T12:24:34.156Z,-0.50
2024-01-07T12:27:08.029Z,-0.60
2024-01-07T12:29:35.505Z,-0.70
2024-01-07T12:32:04.264Z,-0.70
2024-01-07T12:34:32.469Z,-0.70
2024-01-07T12:37:00.760Z,-0.60
2024-01-07T12:39:28.713Z,-0.60
2024-01-07T12:41:55.860Z,-0.40
2024-01-07T12:44:22.640Z,-0.40
2024-01-07T12:46:52.821Z,-0.30
2024-01-07T12:49:19.686Z,-0.40
2024-01-07T12:51:46.550Z,-0.40
2024-01-07T12:54:13.390Z,-0.40
2024-01-07T12:56:40.170Z,-0.30
2024-01-07T12:59:07.001Z,-0.30
2024-01-07T13:01:33.975Z,-0.30
2024-01-07T13:04:01.017Z,-0.30
2024-01-07T13:06:28.115Z,-0.30
2024-01-07T13:08:55.870Z,-0.30
2024-01-07T13:11:22.959Z,-0.30
2024-01-07T13:13:49.822Z,-0.20
2024-01-07T13:16:16.721Z,-0.20
2024-01-07T13:18:43.689Z,-0.10
2024-01-07T13:21:10.616Z,-0.10
2024-01-07T13:23:37.396Z,-0.10
2024-01-07T13:26:07.242Z,-0.10
2024-01-07T13:28:34.315Z,0.00
2024-01-07T13:31:01.545Z,0.00
2024-01-07T13:33:28.555Z,0.00
2024-01-07T13:35:55.445Z,-0.20
2024-01-07T13:38:22.323Z,-0.20
2024-01-07T13:40:49.303Z,-0.20
2024-01-07T13:43:16.672Z,-0.30
2024-01-07T13:45:44.003Z,-0.30
2024-01-07T13:48:11.175Z,-0.30
2024-01-07T13:50:38.114Z,-0.40
2024-01-07T13:53:04.920Z,-0.40
2024-01-07T13:55:32.497Z,-0.40
2024-01-07T13:58:00.226Z,-0.40
2024-01-07T14:00:27.306Z,-0.50
2024-01-07T14:02:54.126Z,-0.40
2024-01-07T14:05:21.264Z,-0.50
2024-01-07T14:07:48.350Z,-0.50
2024-01-07T14:10:16.392Z,-0.40
2024-01-07T14:12:43.849Z,-0.50
2024-01-07T14:15:10.639Z,-0.50
2024-01-07T14:17:37.476Z,-0.50
2024-01-07T14:20:04.789Z,-0.50
2024-01-07T14:22:31.603Z,-0.50
2024-01-07T14:24:58.449Z,-0.50
2024-01-07T14:27:25.336Z,-0.70
2024-01-07T14:29:52.393Z,-0.60
2024-01-07T14:32:19.302Z,-0.70
2024-01-07T14:34:46.197Z,-0.70
2024-01-07T14:37:13.269Z,-0.60
2024-01-07T14:39:40.767Z,-0.60
2024-01-07T14:42:08.145Z,-0.60
2024-01-07T14:44:43.944Z,-0.60
2024-01-07T14:47:15.695Z,-0.60
2024-01-07T14:49:43.061Z,-0.70
2024-01-07T14:52:09.964Z,-0.70
2024-01-07T14:54:38.289Z,-0.70
2024-01-07T14:57:05.693Z,-0.70
2024-01-07T14:59:32.561Z,-0.70
2024-01-07T15:02:00.743Z,-0.70
2024-01-07T15:04:28.568Z,-0.70
2024-01-07T15:06:57.505Z,-0.70
2024-01-07T15:09:24.396Z,-0.80
2024-01-07T15:11:51.659Z,-0.70
2024-01-07T15:14:19.284Z,-0.70
2024-01-07T15:16:52.771Z,-0.70
2024-01-07T15:19:19.688Z,-0.80
2024-01-07T15:21:46.589Z,-0.70
2024-01-07T15:24:13.623Z,-0.70
2024-01-07T15:26:40.457Z,-0.70
2024-01-07T15:29:07.291Z,-0.70
2024-01-07T15:31:35.274Z,-0.60
2024-01-07T15:34:02.218Z,-0.60
2024-01-07T15:36:29.188Z,-0.70
2024-01-07T15:38:55.980Z,-0.70
2024-01-07T15:41:22.853Z,-0.70
2024-01-07T15:43:49.637Z,-0.80
2024-01-07T15:46:16.714Z,-0.80
2024-01-07T15:48:43.714Z,-0.90
2024-01-07T15:51:10.701Z,-0.90
2024-01-07T15:53:37.566Z,-1.00
2024-01-07T15:56:07.189Z,-1.00
2024-01-07T15:58:35.500Z,-1.10
2024-01-07T16:01:06.858Z,-1.10
2024-01-07T16:03:35.203Z,-1.20
2024-01-07T16:06:02.202Z,-1.10
2024-01-07T16:08:32.802Z,-1.10
2024-01-07T16:10:59.961Z,-1.20
2024-01-07T16:13:26.977Z,-1.20
2024-01-07T16:15:54.424Z,-1.20
2024-01-07T16:18:21.610Z,-1.20
2024-01-07T16:20:48.487Z,-1.20
2024-01-07T16:23:15.914Z,-1.10
2024-01-07T16:25:43.152Z,-1.20
2024-01-07T16:28:10.042Z,-1.00
2024-01-07T16:30:37.053Z,-1.20
2024-01-07T16:33:08.649Z,-1.30
2024-01-07T16:35:40.747Z,-1.30
2024-01-07T16:38:07.850Z,-1.20
2024-01-07T16:40:36.485Z,-1.40
2024-01-07T16:43:03.746Z,-1.30
2024-01-07T16:45:30.929Z,-1.30
2024-01-07T16:47:57.974Z,-1.30
2024-01-07T16:50:26.568Z,-1.40
2024-01-07T16:52:55.133Z,-1.50
2024-01-07T16:55:22.370Z,-1.50
2024-01-07T16:57:49.275Z,-1.60
2024-01-07T17:00:16.777Z,-1.50
2024-01-07T17:02:44.184Z,-1.50
2024-01-07T17:05:11.261Z,-1.40
2024-01-07T17:07:38.336Z,-1.30
2024-01-07T17:10:06.679Z,-1.40
2024-01-07T17:12:33.513Z,-1.40
2024-01-07T17:15:01.499Z,-1.40
2024-01-07T17:17:28.361Z,-1.30
2024-01-07T17:19:55.328Z,-1.30
2024-01-07T17:22:22.189Z,-1.30
2024-01-07T17:24:49.286Z,-1.30
2024-01-07T17:27:16.158Z,-1.30
2024-01-07T17:29:42.994Z,-1.30
2024-01-07T17:32:12.485Z,-1.40
2024-01-07T17:34:39.628Z,-1.40
2024-01-07T17:37:06.727Z,-1.50
2024-01-07T17:39:34.553Z,-1.40
2024-01-07T17:42:05.617Z,-1.40
2024-01-07T17:44:32.947Z,-1.60
2024-01-07T17:46:59.797Z,-1.60
2024-01-07T17:49:26.763Z,-1.60
2024-01-07T17:51:53.683Z,-1.40
2024-01-07T17:54:20.499Z,-1.30
2024-01-07T17:56:47.304Z,-1.40
2024-01-07T17:59:14.336Z,-1.50
2024-01-07T18:01:41.318Z,-1.40
2024-01-07T18:04:08.514Z,-1.50
2024-01-07T18:06:35.457Z,-1.40
2024-01-07T18:09:02.865Z,-1.40
2024-01-07T18:11:29.742Z,-1.30
2024-01-07T18:13:57.180Z,-1.40
2024-01-07T18:16:24.162Z,-1.40
2024-01-07T18:18:51.255Z,-1.20
2024-01-07T18:21:18.192Z,-1.40
2024-01-07T18:23:45.042Z,-1.40
2024-01-07T18:26:12.015Z,-1.20
2024-01-07T18:28:38.981Z,-1.50
2024-01-07T18:31:06.231Z,-1.60
2024-01-07T18:33:33.206Z,-1.70
2024-01-07T18:36:01.411Z,-1.60
2024-01-07T18:38:28.559Z,-1.50
2024-01-07T18:40:55.592Z,-1.50
2024-01-07T18:43:22.431Z,-1.60
2024-01-07T18:45:49.345Z,-1.60
2024-01-07T18:48:16.723Z,-1.50
2024-01-07T18:50:44.769Z,-1.30
2024-01-07T18:53:11.826Z,-1.30
2024-01-07T18:55:45.029Z,-1.40
2024-01-07T18:58:11.952Z,-1.40
2024-01-07T19:00:38.933Z,-1.20
2024-01-07T19:03:06.042Z,-1.10
2024-01-07T19:05:33.038Z,-1.10
2024-01-07T19:08:00.771Z,-1.20
2024-01-07T19:10:27.655Z,-1.20
2024-01-07T19:12:54.417Z,-1.10
2024-01-07T19:15:25.553Z,-1.10
2024-01-07T19:17:52.684Z,-1.00
2024-01-07T19:20:19.666Z,-0.80
2024-01-07T19:22:46.727Z,-0.80
2024-01-07T19:25:13.781Z,-0.70
2024-01-07T19:27:41.076Z,-0.70
2024-01-07T19:30:08.945Z,-0.60
2024-01-07T19:32:36.175Z,-0.70
2024-01-07T19:35:03.366Z,-0.60
2024-01-07T19:37:30.162Z,-0.60
2024-01-07T19:39:58.374Z,-0.70
2024-01-07T19:42:25.560Z,-0.60
2024-01-07T19:44:52.411Z,-0.60
2024-01-07T19:47:19.308Z,-0.50
2024-01-07T19:49:46.140Z,-0.60
2024-01-07T19:52:12.950Z,-0.60
2024-01-07T19:54:40.155Z,-0.60
2024-01-07T19:57:07.377Z,-0.70
2024-01-07T19:59:37.176Z,-0.60
2024-01-07T20:02:05.509Z,-0.60
2024-01-07T20:04:32.380Z,-0.70
2024-01-07T20:07:01.515Z,-0.70
2024-01-07T20:09:28.341Z,-0.60
2024-01-07T20:11:55.098Z,-0.60
2024-01-07T20:14:22.088Z,-0.60
2024-01-07T20:16:48.941Z,-0.60
2024-01-07T20:19:15.843Z,-0.50
2024-01-07T20:21:43.444Z,-0.50
2024-01-07T20:24:10.476Z,-0.40
2024-01-07T20:26:39.066Z,-0.50
2024-01-07T20:29:09.075Z,-0.50
2024-01-07T20:31:36.275Z,-0.50
2024-01-07T20:34:03.779Z,-0.50
2024-01-07T20:36:31.216Z,-0.50
2024-01-07T20:38:58.038Z,-0.50
2024-01-07T20:41:25.053Z,-0.50
2024-01-07T20:43:52.525Z,-0.50
2024-01-07T20:46:21.116Z,-0.50
2024-01-07T20:48:48.119Z,-0.50
2024-01-07T20:51:15.211Z,-0.60
2024-01-07T20:53:43.561Z,-0.50
2024-01-07T20:56:10.790Z,-0.50
2024-01-07T20:58:37.915Z,-0.50
2024-01-07T21:01:04.950Z,-0.40
2024-01-07T21:03:31.837Z,-0.40
2024-01-07T21:05:59.848Z,-0.40
2024-01-07T21:08:28.868Z,-0.40
2024-01-07T21:10:57.228Z,-0.40
2024-01-07T21:13:24.038Z,-0.30
2024-01-07T21:15:50.820Z,-0.30
2024-01-07T21:18:18.076Z,-0.30
2024-01-07T21:20:46.925Z,-0.40
2024-01-07T21:23:17.040Z,-0.50
2024-01-07T21:25:44.766Z,-0.50
2024-01-07T21:28:16.478Z,-0.50
2024-01-07T21:30:45.376Z,-0.50
2024-01-07T21:33:12.429Z,-0.40
2024-01-07T21:35:39.363Z,-0.50
2024-01-07T21:38:06.325Z,-0.60
2024-01-07T21:40:33.241Z,-0.50
2024-01-07T21:43:00.011Z,-0.60
2024-01-07T21:45:26.769Z,-0.60
2024-01-07T21:47:53.682Z,-0.70
2024-01-07T21:50:20.610Z,-0.70
2024-01-07T21:52:56.076Z,-0.60
2024-01-07T21:55:23.364Z,-0.80
2024-01-07T21:57:50.299Z,-0.70
2024-01-07T22:00:17.342Z,-0.60
2024-01-07T22:02:44.713Z,-0.50
2024-01-07T22:05:11.886Z,-0.50
2024-01-07T22:07:38.824Z,-0.70
2024-01-07T22:10:06.962Z,-0.80
2024-01-07T22:12:33.805Z,-0.70
2024-01-07T22:15:01.083Z,-0.70
2024-01-07T22:17:28.278Z,-0.90
2024-01-07T22:19:55.174Z,-1.00
2024-01-07T22:22:22.916Z,-1.00
2024-01-07T22:24:49.759Z,-1.10
2024-01-07T22:27:16.573Z,-1.10
2024-01-07T22:29:43.608Z,-1.10
2024-01-07T22:32:10.435Z,-1.10
2024-01-07T22:34:37.286Z,-1.10
2024-01-07T22:37:04.190Z,-1.20
2024-01-07T22:39:32.249Z,-1.30
2024-01-07T22:41:59.941Z,-1.30
2024-01-07T22:44:26.805Z,-1.20
2024-01-07T22:46:53.814Z,-1.20
2024-01-07T22:49:21.045Z,-1.20
2024-01-07T22:51:48.010Z,-1.20
2024-01-07T22:54:14.992Z,-1.20
2024-01-07T22:56:43.195Z,-1.20
2024-01-07T22:59:14.792Z,-1.20
2024-01-07T23:01:42.194Z,-1.30
2024-01-07T23:04:09.928Z,-1.30
2024-01-07T23:06:39.392Z,-1.30
2024-01-07T23:09:07.139Z,-1.20
2024-01-07T23:11:34.181Z,-1.20
2024-01-07T23:14:01.437Z,-1.20
2024-01-07T23:16:28.338Z,-1.20
2024-01-07T23:18:55.394Z,-1.10
2024-01-07T23:21:24.572Z,-0.90
2024-01-07T23:23:51.834Z,-0.90
2024-01-07T23:26:18.818Z,-0.80
2024-01-07T23:28:45.716Z,-0.90
2024-01-07T23:31:12.663Z,-0.90
2024-01-07T23:33:39.770Z,-0.70
2024-01-07T23:36:10.097Z,-0.60
2024-01-07T23:38:37.439Z,-0.60
2024-01-07T23:41:05.973Z,-0.60
2024-01-07T23:43:34.174Z,-0.60
2024-01-07T23:46:01.565Z,-0.50
2024-01-07T23:48:29.874Z,-0.60
2024-01-07T23:50:57.131Z,-0.60
2024-01-07T23:53:24.358Z,-0.50
2024-01-07T23:55:51.496Z,-0.50
2024-01-07T23:58:19.204Z,-0.50
